»·PEaware :: N6218B KPDX-KBKE

N6218B :: KPDX-KBKE

FLIGHT INFORMATION

Flight Status: Arrived
Operator: Privately registered:
United States
More flights under this callsign
Pilot: Anonymous 16594 (16594)
Aircraft: LOCKHEED L-049/749/1049 CONSTELLATION
(CONI)
More flights by this aircraft type
Origin: KPDX Portland Intl
United States
Destination: KBKE Baker City Mun
United States
More flights between these airports :: More routes between these airports
Route: +PTLD1 BTG V182 BKE
File this flight plan on PilotEdge
Remarks:
Altitude:
(Current/Filed)
15,000ft
Speed:
(Current/Filed)
280kts
Departed: 20-Feb-18 03:46 PM
Arrived: 20-Feb-18 04:53 PM
Distance/Time
Traveled:
207nm/1:07
Distance/Time
To Go:
Arrived

Flight Plot

Page will automatically refresh every two minutes.

Flight plan parsing failed; only flown route is shown


Map Options




Map Legend


Flown Route
Filed Route
Departure Airport
Arrival Airport
Navaid (VOR, NDB)
Fix

Horizontal Profiles

Position Reports

Time Latitude Longitude Heading Altitude Ground
Speed
20-Feb-18 15:28 45.584878 -122.578218 9 40ft 0kts
20-Feb-18 15:29 45.584878 -122.578218 9 40ft 0kts
20-Feb-18 15:30 45.584878 -122.578218 9 40ft 0kts
20-Feb-18 15:31 45.584878 -122.578218 9 40ft 0kts
20-Feb-18 15:32 45.584878 -122.578218 9 40ft 0kts
20-Feb-18 15:33 45.584878 -122.578218 9 40ft 0kts
20-Feb-18 15:34 45.584879 -122.578218 7 40ft 0kts
20-Feb-18 15:35 45.584880 -122.578218 6 40ft 0kts
20-Feb-18 15:36 45.584882 -122.578217 6 40ft 0kts
20-Feb-18 15:37 45.584884 -122.578217 6 40ft 0kts
20-Feb-18 15:38 45.584886 -122.578217 6 40ft 0kts
20-Feb-18 15:39 45.584888 -122.578216 6 40ft 0kts
20-Feb-18 15:40 45.584890 -122.578216 6 40ft 0kts
20-Feb-18 15:41 45.584891 -122.578216 6 40ft 0kts
20-Feb-18 15:42 45.584893 -122.578216 6 40ft 0kts
20-Feb-18 15:43 45.584895 -122.578215 6 40ft 0kts
20-Feb-18 15:44 45.584897 -122.578215 6 40ft 0kts
20-Feb-18 15:45 45.584898 -122.578215 6 40ft 0kts
20-Feb-18 15:46 45.584925 -122.578210 6 40ft 1kts
20-Feb-18 15:47 45.586980 -122.578384 298 40ft 4kts
20-Feb-18 15:48 45.589576 -122.584899 300 40ft 35kts
20-Feb-18 15:49 45.593459 -122.594681 301 40ft 13kts
20-Feb-18 15:50 45.594003 -122.595975 354 40ft 0kts
20-Feb-18 15:51 45.594174 -122.595902 41 40ft 0kts
20-Feb-18 15:52 45.594547 -122.595390 72 40ft 6kts
20-Feb-18 15:53 45.588772 -122.579902 117 174ft 105kts
20-Feb-18 15:54 45.574138 -122.544313 117 1196ft 104kts
20-Feb-18 15:55 45.559406 -122.506524 118 1819ft 131kts
20-Feb-18 15:56 45.542781 -122.461728 118 3089ft 128kts
20-Feb-18 15:57 45.526576 -122.415099 118 4260ft 134kts
20-Feb-18 15:58 45.510250 -122.366739 117 5758ft 129kts
20-Feb-18 15:59 45.515861 -122.314692 54 6670ft 131kts
20-Feb-18 16:00 45.537719 -122.266272 60 7290ft 149kts
20-Feb-18 16:01 45.559674 -122.216152 46 8511ft 156kts
20-Feb-18 16:02 45.586868 -122.171268 45 9995ft 149kts
20-Feb-18 16:03 45.613063 -122.124566 45 11222ft 151kts
20-Feb-18 16:04 45.639697 -122.075699 41 12201ft 157kts
20-Feb-18 16:05 45.668038 -122.028997 39 13003ft 160kts
20-Feb-18 16:06 45.696973 -121.980576 39 13751ft 159kts
20-Feb-18 16:07 45.727451 -121.929441 52 14402ft 185kts
20-Feb-18 16:08 45.725312 -121.851705 93 14874ft 205kts
20-Feb-18 16:09 45.717033 -121.767974 86 15205ft 218kts
20-Feb-18 16:10 45.714453 -121.676468 86 15087ft 242kts
20-Feb-18 16:11 45.712784 -121.578831 85 15038ft 246kts
20-Feb-18 16:12 45.711246 -121.480610 85 15048ft 246kts
20-Feb-18 16:13 45.709828 -121.382984 85 15057ft 245kts
20-Feb-18 16:14 45.708207 -121.285348 86 15066ft 245kts
20-Feb-18 16:15 45.706118 -121.188039 86 15070ft 244kts
20-Feb-18 16:16 45.702479 -121.090610 98 15187ft 246kts
20-Feb-18 16:17 45.681560 -120.995653 105 15127ft 254kts
20-Feb-18 16:18 45.658532 -120.899302 105 15063ft 257kts
20-Feb-18 16:19 45.635485 -120.802132 105 15030ft 258kts
20-Feb-18 16:20 45.612073 -120.705325 106 15036ft 256kts
20-Feb-18 16:21 45.591321 -120.625661 106 15011ft 257kts
20-Feb-18 16:22 45.562440 -120.514102 106 14986ft 257kts
20-Feb-18 16:23 45.542114 -120.434073 106 14972ft 256kts
20-Feb-18 16:24 45.513783 -120.322103 108 14939ft 260kts
20-Feb-18 16:25 45.493511 -120.241368 108 14971ft 259kts
20-Feb-18 16:26 45.469072 -120.144585 109 15020ft 258kts
20-Feb-18 16:27 45.443501 -120.048726 109 15036ft 259kts
20-Feb-18 16:28 45.418856 -119.952269 108 15062ft 259kts
20-Feb-18 16:29 45.394482 -119.855285 108 15068ft 260kts
20-Feb-18 16:30 45.369982 -119.758187 110 15058ft 260kts
20-Feb-18 16:31 45.343346 -119.662118 110 15042ft 261kts
20-Feb-18 16:32 45.317072 -119.565992 110 15024ft 261kts
20-Feb-18 16:33 45.290902 -119.469893 110 15020ft 260kts
20-Feb-18 16:34 45.264833 -119.373764 110 15012ft 260kts
20-Feb-18 16:35 45.238673 -119.278170 110 15005ft 260kts
20-Feb-18 16:36 45.213144 -119.182427 109 14999ft 260kts
20-Feb-18 16:37 45.188239 -119.085965 108 14998ft 259kts
20-Feb-18 16:38 45.162588 -118.990541 110 15001ft 259kts
20-Feb-18 16:39 45.136875 -118.894914 110 15002ft 259kts
20-Feb-18 16:40 45.111273 -118.799799 110 14999ft 259kts
20-Feb-18 16:41 45.085484 -118.704728 110 15008ft 259kts
20-Feb-18 16:42 45.059953 -118.609208 110 15007ft 259kts
20-Feb-18 16:43 45.034492 -118.514095 110 15008ft 259kts
20-Feb-18 16:44 45.008852 -118.418834 109 15016ft 258kts
20-Feb-18 16:45 44.984227 -118.325724 110 14525ft 251kts
20-Feb-18 16:46 44.961404 -118.238130 108 14025ft 227kts
20-Feb-18 16:47 44.939954 -118.154440 109 13384ft 224kts
20-Feb-18 16:48 44.918560 -118.069269 110 12439ft 230kts
20-Feb-18 16:49 44.897509 -117.985497 109 11591ft 221kts
20-Feb-18 16:50 44.878039 -117.902992 108 10820ft 215kts
20-Feb-18 16:51 44.846712 -117.835639 125 9865ft 213kts
20-Feb-18 16:52 44.860698 -117.757610 47 8718ft 202kts
20-Feb-18 16:53 44.895082 -117.775273 252 7792ft 163kts
20-Feb-18 16:54 44.868247 -117.821414 195 6513ft 142kts
20-Feb-18 16:55 44.832633 -117.826124 148 5157ft 117kts
20-Feb-18 16:56 44.810287 -117.804307 176 4257ft 91kts
20-Feb-18 16:57 44.789974 -117.792843 60 4043ft 96kts
20-Feb-18 16:58 44.815762 -117.790298 359 3768ft 93kts
20-Feb-18 16:59 44.836598 -117.807150 317 3383ft 68kts
20-Feb-18 17:00 44.841338 -117.813625 167 3383ft 15kts
20-Feb-18 17:01 44.836015 -117.807866 144 3383ft 16kts
20-Feb-18 17:02 44.834457 -117.808079 147 3383ft 4kts
20-Feb-18 17:03 44.834424 -117.807999 90 3383ft 0kts
20-Feb-18 17:04 44.834424 -117.807997 87 3383ft 0kts
20-Feb-18 17:05 44.834424 -117.807995 84 3383ft 0kts
20-Feb-18 17:06 44.834424 -117.807993 80 3383ft 0kts
20-Feb-18 17:07 44.834424 -117.807993 80 3383ft 0kts
20-Feb-18 17:08 44.834424 -117.807993 80 3383ft 0kts

Navigation Log

Ident Type
Flight plan parsing failed, navigation log unavailable